Ocoee 3 Observed Data For Previous 48 Hours

Caption
Day and Hour Reservoir Elevation (behind dam)* Tailwater Elevation (below dam)* Average Hourly Discharge*
9/20/2018 2 AM EDT 1,432.71 1,114.07 11
9/20/2018 3 AM EDT 1,432.80 1,114.09 0
9/20/2018 4 AM EDT 1,432.92 1,114.09 0
9/20/2018 5 AM EDT 1,433.02 1,114.08 0
9/20/2018 6 AM EDT 1,433.13 1,114.08 0
9/20/2018 7 AM EDT 1,433.24 1,114.09 0
9/20/2018 8 AM EDT 1,433.29 1,117.88 61
9/20/2018 9 AM EDT 1,433.20 1,118.54 1,049
9/20/2018 10 AM EDT 1,433.09 1,118.57 1,050
9/20/2018 11 AM EDT 1,432.96 1,118.44 1,049
9/20/2018 12 PM EDT 1,432.84 1,118.55 1,054
9/20/2018 1 PM EDT 1,432.70 1,119.19 1,072
9/20/2018 2 PM EDT 1,432.50 1,119.41 1,396
9/20/2018 3 PM EDT 1,432.29 1,119.34 1,393
9/20/2018 4 PM EDT 1,432.08 1,119.47 1,395
9/20/2018 5 PM EDT 1,431.86 1,119.40 1,393
9/20/2018 6 PM EDT 1,431.64 1,119.41 1,395
9/20/2018 7 PM EDT 1,431.40 1,119.36 1,392
9/20/2018 8 PM EDT 1,431.15 1,119.38 1,394
9/20/2018 9 PM EDT 1,431.08 1,118.69 1,062
9/20/2018 10 PM EDT 1,431.22 1,118.53 1,056
9/20/2018 11 PM EDT 1,431.79 1,114.08 11
9/21/2018 12 AM EDT 1,432.33 1,114.08 0
9/21/2018 1 AM EDT 1,432.77 1,114.08 0
9/21/2018 2 AM EDT 1,433.08 1,114.09 0
9/21/2018 3 AM EDT 1,433.28 1,114.09 0
9/21/2018 4 AM EDT 1,433.43 1,114.09 0
9/21/2018 5 AM EDT 1,433.54 1,114.08 0
9/21/2018 6 AM EDT 1,433.60 1,118.08 61
9/21/2018 7 AM EDT 1,433.52 1,118.50 1,046
9/21/2018 8 AM EDT 1,433.40 1,118.57 1,049
9/21/2018 9 AM EDT 1,433.28 1,118.51 1,049
9/21/2018 10 AM EDT 1,433.16 1,118.48 1,050
9/21/2018 11 AM EDT 1,433.04 1,118.61 1,050
9/21/2018 12 PM EDT 1,432.92 1,118.58 1,051
9/21/2018 1 PM EDT 1,432.79 1,119.11 1,070
9/21/2018 2 PM EDT 1,432.58 1,119.24 1,396
9/21/2018 3 PM EDT 1,432.38 1,119.35 1,393
9/21/2018 4 PM EDT 1,432.16 1,119.23 1,396
9/21/2018 5 PM EDT 1,431.95 1,119.35 1,392
9/21/2018 6 PM EDT 1,431.72 1,119.43 1,391
9/21/2018 7 PM EDT 1,431.49 1,119.31 1,392
9/21/2018 8 PM EDT 1,431.35 1,118.55 1,060
9/21/2018 9 PM EDT 1,431.26 1,118.52 1,052
9/21/2018 10 PM EDT 1,431.41 1,118.50 1,054
9/21/2018 11 PM EDT 1,431.65 1,118.48 1,052
9/22/2018 12 AM EDT 1,431.90 1,118.47 1,050
9/22/2018 1 AM EDT 1,432.10 1,118.61 1,052
9/22/2018 2 AM EDT 1,432.47 1,114.08 13
9/22/2018 3 AM EDT 1,432.70 1,114.08 0
9/22/2018 4 AM EDT 1,432.87 1,114.09 0
9/22/2018 5 AM EDT 1,432.99 1,114.09 0
9/22/2018 6 AM EDT 1,433.11 1,114.09 0
9/22/2018 7 AM EDT 1,433.21 1,114.07 0
9/22/2018 8 AM EDT 1,433.26 1,118.38 71
9/22/2018 9 AM EDT 1,433.09 1,119.06 1,366
9/22/2018 10 AM EDT 1,432.93 1,118.92 1,219
9/22/2018 11 AM EDT 1,432.77 1,119.09 1,221
9/22/2018 12 PM EDT 1,432.61 1,119.01 1,219
9/22/2018 1 PM EDT 1,432.44 1,119.10 1,219
9/22/2018 2 PM EDT 1,432.27 1,119.12 1,219
9/22/2018 3 PM EDT 1,432.09 1,119.07 1,227
9/22/2018 4 PM EDT 1,431.91 1,119.17 1,229
9/22/2018 5 PM EDT 1,431.80 1,119.22 1,235

Elevations are in feet above sea level. Discharges are in cubic feet per second and are reported at the end of the hour.